Time,TemperatureF,DewpointF,PressureIn,WindDirection,WindDirectionDegrees,WindSpeedMPH,WindSpeedGustMPH,Humidity,HourlyPrecipIn,Conditions,Clouds,dailyrainin,SoftwareType,DateUTC
2013-01-01 00:05:00,35.1,33.3,30.43,SE,141,0.0,0.0,93,0.00,,,0.00,Wunderground v.1.15,2013-01-01 08:05:00,
2013-01-01 00:15:00,35.2,33.4,30.44,SE,141,0.0,0.0,93,0.00,,,0.00,Wunderground v.1.15,2013-01-01 08:15:00,
2013-01-01 00:25:00,35.3,33.5,30.43,SE,141,0.0,0.0,93,0.00,,,0.00,Wunderground v.1.15,2013-01-01 08:25:00,
2013-01-01 00:35:00,35.2,33.1,30.44,SE,141,0.0,2.0,92,0.00,,,0.00,Wunderground v.1.15,2013-01-01 08:35:00,
2013-01-01 00:45:00,35.1,33.0,30.44,WNW,299,0.0,2.0,92,0.00,,,0.00,Wunderground v.1.15,2013-01-01 08:45:00,
2013-01-01 00:55:00,35.1,33.0,30.44,WNW,301,0.0,2.0,92,0.00,,,0.00,Wunderground v.1.15,2013-01-01 08:55:00,
2013-01-01 01:00:00,35.1,33.0,30.44,NNW,333,0.0,0.0,92,0.00,,,0.00,Wunderground v.1.15,2013-01-01 09:00:00,
2013-01-01 01:05:00,35.1,33.0,30.44,NNW,337,0.0,0.0,92,0.00,,,0.00,Wunderground v.1.15,2013-01-01 09:05:00,
2013-01-01 01:15:00,35.0,32.9,30.44,NNW,337,0.0,0.0,92,0.00,,,0.00,Wunderground v.1.15,2013-01-01 09:15:00,
2013-01-01 01:20:00,35.0,33.2,30.45,NNW,328,0.0,0.0,93,0.00,,,0.00,Wunderground v.1.15,2013-01-01 09:20:00,
2013-01-01 01:25:00,34.9,33.1,30.45,NW,316,0.0,0.0,93,0.00,,,0.00,Wunderground v.1.15,2013-01-01 09:25:00,
2013-01-01 01:35:00,35.0,33.4,30.45,NNW,328,0.0,0.0,94,0.00,,,0.00,Wunderground v.1.15,2013-01-01 09:35:00,
2013-01-01 01:40:00,35.0,33.4,30.45,NNW,330,0.0,0.0,94,0.00,,,0.00,Wunderground v.1.15,2013-01-01 09:40:00,
2013-01-01 01:45:00,35.0,33.4,30.45,North,2,0.0,0.0,94,0.00,,,0.00,Wunderground v.1.15,2013-01-01 09:45:00,
2013-01-01 01:55:00,35.1,33.5,30.45,North,8,0.0,0.0,94,0.00,,,0.00,Wunderground v.1.15,2013-01-01 09:55:00,
2013-01-01 02:00:00,35.0,33.4,30.45,North,353,0.0,0.0,94,0.00,,,0.00,Wunderground v.1.15,2013-01-01 10:00:00,
2013-01-01 02:10:00,34.8,33.0,30.46,NW,316,0.0,0.0,93,0.00,,,0.00,Wunderground v.1.15,2013-01-01 10:10:00,
2013-01-01 02:15:00,34.7,32.6,30.46,North,352,0.0,0.0,92,0.00,,,0.00,Wunderground v.1.15,2013-01-01 10:15:00,
2013-01-01 02:20:00,34.6,32.5,30.46,NNW,330,0.0,0.0,92,0.00,,,0.00,Wunderground v.1.15,2013-01-01 10:20:00,
2013-01-01 02:25:00,34.6,32.5,30.47,WNW,299,0.0,1.0,92,0.00,,,0.00,Wunderground v.1.15,2013-01-01 10:25:00,
2013-01-01 02:35:00,34.6,32.2,30.47,NW,314,0.0,1.0,91,0.00,,,0.00,Wunderground v.1.15,2013-01-01 10:35:00,
2013-01-01 02:45:00,34.4,31.8,30.47,North,356,0.0,1.0,90,0.00,,,0.00,Wunderground v.1.15,2013-01-01 10:45:00,
2013-01-01 02:55:00,34.3,31.4,30.47,North,359,0.0,1.0,89,0.00,,,0.00,Wunderground v.1.15,2013-01-01 10:55:00,
2013-01-01 03:05:00,34.0,31.1,30.46,North,359,0.0,0.0,89,0.00,,,0.00,Wunderground v.1.15,2013-01-01 11:05:00,
2013-01-01 03:15:00,33.7,31.1,30.46,NW,324,0.0,0.0,90,0.00,,,0.00,Wunderground v.1.15,2013-01-01 11:15:00,
2013-01-01 03:25:00,33.5,30.6,30.46,NW,315,0.0,0.0,89,0.00,,,0.00,Wunderground v.1.15,2013-01-01 11:25:00,
2013-01-01 03:35:00,33.5,30.6,30.45,North,6,0.0,2.0,89,0.00,,,0.00,Wunderground v.1.15,2013-01-01 11:35:00,
2013-01-01 03:45:00,33.4,30.5,30.45,NW,306,0.0,2.0,89,0.00,,,0.00,Wunderground v.1.15,2013-01-01 11:45:00,
2013-01-01 03:55:00,33.1,30.2,30.45,NNW,327,0.0,2.0,89,0.00,,,0.00,Wunderground v.1.15,2013-01-01 11:55:00,
2013-01-01 04:05:00,32.9,30.0,30.45,NNW,344,0.0,0.0,89,0.00,,,0.00,Wunderground v.1.15,2013-01-01 12:05:00,
2013-01-01 04:15:00,32.8,30.2,30.44,North,351,0.0,0.0,90,0.00,,,0.00,Wunderground v.1.15,2013-01-01 12:15:00,
2013-01-01 04:20:00,32.7,30.1,30.44,North,351,0.0,0.0,90,0.00,,,0.00,Wunderground v.1.15,2013-01-01 12:20:00,
2013-01-01 04:25:00,32.5,29.9,30.44,North,351,0.0,0.0,90,0.00,,,0.00,Wunderground v.1.15,2013-01-01 12:25:00,
2013-01-01 04:35:00,32.3,29.7,30.44,North,351,0.0,2.0,90,0.00,,,0.00,Wunderground v.1.15,2013-01-01 12:35:00,
2013-01-01 04:45:00,32.0,29.4,30.43,North,351,0.0,2.0,90,0.00,,,0.00,Wunderground v.1.15,2013-01-01 12:45:00,
2013-01-01 04:55:00,31.7,29.1,30.43,North,351,0.0,2.0,90,0.00,,,0.00,Wunderground v.1.15,2013-01-01 12:55:00,
2013-01-01 05:05:00,31.7,29.1,30.43,North,349,0.0,0.0,90,0.00,,,0.00,Wunderground v.1.15,2013-01-01 13:05:00,
2013-01-01 05:15:00,31.6,29.3,30.42,NNW,336,0.0,0.0,91,0.00,,,0.00,Wunderground v.1.15,2013-01-01 13:15:00,
2013-01-01 05:25:00,31.5,29.2,30.42,NW,314,0.0,0.0,91,0.00,,,0.00,Wunderground v.1.15,2013-01-01 13:25:00,
2013-01-01 05:35:00,31.5,29.2,30.42,NW,315,0.0,1.0,91,0.00,,,0.00,Wunderground v.1.15,2013-01-01 13:35:00,
2013-01-01 05:45:00,31.5,29.2,30.42,NW,308,0.0,2.0,91,0.00,,,0.00,Wunderground v.1.15,2013-01-01 13:45:00,
2013-01-01 05:55:00,31.4,29.1,30.42,NW,308,0.0,1.0,91,0.00,,,0.00,Wunderground v.1.15,2013-01-01 13:55:00,
2013-01-01 06:05:00,31.2,29.1,30.42,NW,308,0.0,0.0,92,0.00,,,0.00,Wunderground v.1.15,2013-01-01 14:05:00,
2013-01-01 06:15:00,31.1,29.0,30.43,NW,308,0.0,0.0,92,0.00,,,0.00,Wunderground v.1.15,2013-01-01 14:15:00,
2013-01-01 06:25:00,31.0,29.2,30.43,NW,305,0.0,0.0,93,0.00,,,0.00,Wunderground v.1.15,2013-01-01 14:25:00,
2013-01-01 06:30:00,30.9,29.1,30.43,NW,305,0.0,0.0,93,0.00,,,0.00,Wunderground v.1.15,2013-01-01 14:30:00,
2013-01-01 06:35:00,30.8,29.0,30.43,NW,305,0.0,1.0,93,0.00,,,0.00,Wunderground v.1.15,2013-01-01 14:35:00,
2013-01-01 06:45:00,30.6,28.8,30.43,NW,305,0.0,1.0,93,0.00,,,0.00,Wunderground v.1.15,2013-01-01 14:45:00,
2013-01-01 06:55:00,30.5,28.7,30.42,NW,305,0.0,1.0,93,0.00,,,0.00,Wunderground v.1.15,2013-01-01 14:55:00,
2013-01-01 07:05:00,30.5,28.7,30.42,WNW,301,0.0,0.0,93,0.00,,,0.00,Wunderground v.1.15,2013-01-01 15:05:00,
2013-01-01 07:10:00,30.5,28.7,30.43,WNW,301,0.0,0.0,93,0.00,,,0.00,Wunderground v.1.15,2013-01-01 15:10:00,
2013-01-01 07:15:00,30.6,28.8,30.43,WNW,301,0.0,0.0,93,0.00,,,0.00,Wunderground v.1.15,2013-01-01 15:15:00,
2013-01-01 07:25:00,30.6,28.6,30.43,WNW,301,0.0,0.0,92,0.00,,,0.00,Wunderground v.1.15,2013-01-01 15:25:00,
2013-01-01 07:35:00,30.5,28.5,30.43,NW,306,0.0,2.0,92,0.00,,,0.00,Wunderground v.1.15,2013-01-01 15:35:00,
2013-01-01 07:45:00,30.6,28.6,30.43,North,360,0.0,2.0,92,0.00,,,0.00,Wunderground v.1.15,2013-01-01 15:45:00,
2013-01-01 07:55:00,30.7,28.7,30.44,NNE,14,0.0,2.0,92,0.00,,,0.00,Wunderground v.1.15,2013-01-01 15:55:00,
2013-01-01 08:05:00,30.7,28.7,30.45,North,359,0.0,0.0,92,0.00,,,0.00,Wunderground v.1.15,2013-01-01 16:05:00,
2013-01-01 08:15:00,30.8,29.0,30.46,North,355,0.0,0.0,93,0.00,,,0.00,Wunderground v.1.15,2013-01-01 16:15:00,
2013-01-01 08:25:00,31.1,29.0,30.47,NNW,343,0.0,0.0,92,0.00,,,0.00,Wunderground v.1.15,2013-01-01 16:25:00,
2013-01-01 08:35:00,31.3,29.2,30.47,North,352,0.0,2.0,92,0.00,,,0.00,Wunderground v.1.15,2013-01-01 16:35:00,
2013-01-01 08:45:00,31.4,29.3,30.47,North,353,0.0,2.0,92,0.00,,,0.00,Wunderground v.1.15,2013-01-01 16:45:00,
2013-01-01 08:55:00,31.6,29.5,30.47,North,353,0.0,2.0,92,0.00,,,0.00,Wunderground v.1.15,2013-01-01 16:55:00,
2013-01-01 09:05:00,31.9,29.8,30.47,NW,326,0.0,0.0,92,0.00,,,0.00,Wunderground v.1.15,2013-01-01 17:05:00,
2013-01-01 09:15:00,32.3,30.0,30.47,NW,306,0.0,0.0,91,0.00,,,0.00,Wunderground v.1.15,2013-01-01 17:15:00,
2013-01-01 09:25:00,32.8,30.2,30.47,NNE,12,0.0,0.0,90,0.00,,,0.00,Wunderground v.1.15,2013-01-01 17:25:00,
2013-01-01 09:35:00,33.1,30.2,30.47,NNE,26,0.0,3.0,89,0.00,,,0.00,Wunderground v.1.15,2013-01-01 17:35:00,
2013-01-01 09:45:00,33.5,30.3,30.47,NE,43,0.0,3.0,88,0.00,,,0.00,Wunderground v.1.15,2013-01-01 17:45:00,
2013-01-01 09:55:00,34.0,30.5,30.47,NW,316,0.0,3.0,87,0.00,,,0.00,Wunderground v.1.15,2013-01-01 17:55:00,
2013-01-01 10:00:00,34.4,30.6,30.47,NW,325,0.0,0.0,86,0.00,,,0.00,Wunderground v.1.15,2013-01-01 18:00:00,
2013-01-01 10:10:00,34.8,30.8,30.47,NNE,16,0.0,0.0,85,0.00,,,0.00,Wunderground v.1.15,2013-01-01 18:10:00,
2013-01-01 10:15:00,35.0,30.9,30.47,North,1,0.0,1.0,85,0.00,,,0.00,Wunderground v.1.15,2013-01-01 18:15:00,
2013-01-01 10:20:00,35.3,30.9,30.47,NNE,27,0.0,0.0,84,0.00,,,0.00,Wunderground v.1.15,2013-01-01 18:20:00,
2013-01-01 10:25:00,35.7,31.3,30.47,NNE,20,0.0,0.0,84,0.00,,,0.00,Wunderground v.1.15,2013-01-01 18:25:00,
2013-01-01 10:35:00,36.3,31.3,30.47,North,351,1.0,2.0,82,0.00,,,0.00,Wunderground v.1.15,2013-01-01 18:35:00,
2013-01-01 10:40:00,36.7,31.4,30.47,North,359,0.0,2.0,81,0.00,,,0.00,Wunderground v.1.15,2013-01-01 18:40:00,
2013-01-01 10:45:00,37.0,31.1,30.47,NNW,337,0.0,2.0,79,0.00,,,0.00,Wunderground v.1.15,2013-01-01 18:45:00,
2013-01-01 10:55:00,37.4,31.2,30.46,NNW,327,0.0,2.0,78,0.00,,,0.00,Wunderground v.1.15,2013-01-01 18:55:00,
2013-01-01 11:05:00,37.7,31.1,30.45,NNW,337,0.0,0.0,77,0.00,,,0.00,Wunderground v.1.15,2013-01-01 19:05:00,
2013-01-01 11:10:00,37.9,31.3,30.45,North,2,0.0,0.0,77,0.00,,,0.00,Wunderground v.1.15,2013-01-01 19:10:00,
2013-01-01 11:15:00,38.2,31.3,30.45,NNE,12,0.0,0.0,76,0.00,,,0.00,Wunderground v.1.15,2013-01-01 19:15:00,
2013-01-01 11:25:00,38.6,31.4,30.45,NNW,345,0.0,0.0,75,0.00,,,0.00,Wunderground v.1.15,2013-01-01 19:25:00,
2013-01-01 11:35:00,39.1,32.2,30.44,North,8,0.0,4.0,76,0.00,,,0.00,Wunderground v.1.15,2013-01-01 19:35:00,
2013-01-01 11:45:00,39.5,33.5,30.44,NNW,337,1.0,4.0,79,0.00,,,0.00,Wunderground v.1.15,2013-01-01 19:45:00,
2013-01-01 11:55:00,39.8,34.1,30.43,North,10,1.0,4.0,80,0.00,,,0.00,Wunderground v.1.15,2013-01-01 19:55:00,
2013-01-01 12:05:00,39.8,34.1,30.43,North,1,1.0,1.0,80,0.00,,,0.00,Wunderground v.1.15,2013-01-01 20:05:00,
2013-01-01 12:15:00,39.8,33.8,30.43,North,357,1.0,1.0,79,0.00,,,0.00,Wunderground v.1.15,2013-01-01 20:15:00,
2013-01-01 12:25:00,39.9,33.9,30.42,NNW,343,0.0,1.0,79,0.00,,,0.00,Wunderground v.1.15,2013-01-01 20:25:00,
2013-01-01 12:35:00,40.1,33.8,30.42,NW,320,1.0,5.0,78,0.00,,,0.00,Wunderground v.1.15,2013-01-01 20:35:00,
2013-01-01 12:45:00,40.3,34.3,30.42,North,10,1.0,5.0,79,0.00,,,0.00,Wunderground v.1.15,2013-01-01 20:45:00,
2013-01-01 12:55:00,40.4,34.4,30.42,North,11,1.0,5.0,79,0.00,,,0.00,Wunderground v.1.15,2013-01-01 20:55:00,
2013-01-01 13:05:00,40.0,34.3,30.42,North,360,2.0,4.0,80,0.00,,,0.00,Wunderground v.1.15,2013-01-01 21:05:00,
2013-01-01 13:15:00,39.7,34.7,30.41,North,360,2.0,5.0,82,0.00,,,0.00,Wunderground v.1.15,2013-01-01 21:15:00,
2013-01-01 13:25:00,39.8,34.8,30.41,NW,304,1.0,6.0,82,0.00,,,0.00,Wunderground v.1.15,2013-01-01 21:25:00,
2013-01-01 13:35:00,39.9,34.9,30.41,WNW,291,1.0,2.0,82,0.00,,,0.00,Wunderground v.1.15,2013-01-01 21:35:00,
2013-01-01 13:45:00,40.1,35.0,30.41,North,3,1.0,7.0,82,0.00,,,0.00,Wunderground v.1.15,2013-01-01 21:45:00,
2013-01-01 13:55:00,40.1,34.7,30.41,North,8,1.0,7.0,81,0.00,,,0.00,Wunderground v.1.15,2013-01-01 21:55:00,
2013-01-01 14:05:00,40.2,35.1,30.42,WNW,298,1.0,3.0,82,0.00,,,0.00,Wunderground v.1.15,2013-01-01 22:05:00,
2013-01-01 14:10:00,40.2,35.1,30.42,NNW,345,1.0,1.0,82,0.00,,,0.00,Wunderground v.1.15,2013-01-01 22:10:00,
2013-01-01 14:15:00,40.3,34.9,30.41,WNW,301,0.0,1.0,81,0.00,,,0.00,Wunderground v.1.15,2013-01-01 22:15:00,
2013-01-01 14:25:00,40.3,34.9,30.41,ENE,64,1.0,1.0,81,0.00,,,0.00,Wunderground v.1.15,2013-01-01 22:25:00,
2013-01-01 14:35:00,40.4,35.3,30.41,NW,319,1.0,9.0,82,0.00,,,0.00,Wunderground v.1.15,2013-01-01 22:35:00,
2013-01-01 14:45:00,40.4,35.0,30.41,NW,325,2.0,9.0,81,0.00,,,0.00,Wunderground v.1.15,2013-01-01 22:45:00,
2013-01-01 14:55:00,40.5,35.4,30.41,NW,322,1.0,9.0,82,0.00,,,0.00,Wunderground v.1.15,2013-01-01 22:55:00,
2013-01-01 15:05:00,40.6,35.2,30.41,NW,316,2.0,2.0,81,0.00,,,0.00,Wunderground v.1.15,2013-01-01 23:05:00,
2013-01-01 15:15:00,40.6,35.2,30.40,NW,314,1.0,3.0,81,0.00,,,0.00,Wunderground v.1.15,2013-01-01 23:15:00,
2013-01-01 15:25:00,40.5,35.1,30.40,NW,316,1.0,2.0,81,0.00,,,0.00,Wunderground v.1.15,2013-01-01 23:25:00,
2013-01-01 15:35:00,40.4,35.0,30.41,NW,312,2.0,5.0,81,0.00,,,0.00,Wunderground v.1.15,2013-01-01 23:35:00,
2013-01-01 15:45:00,40.3,34.9,30.40,NNW,348,2.0,8.0,81,0.00,,,0.00,Wunderground v.1.15,2013-01-01 23:45:00,
2013-01-01 15:55:00,40.0,34.6,30.40,WNW,303,1.0,8.0,81,0.00,,,0.00,Wunderground v.1.15,2013-01-01 23:55:00,
2013-01-01 16:05:00,39.8,34.4,30.40,NW,312,0.0,2.0,81,0.00,,,0.00,Wunderground v.1.15,2013-01-02 00:05:00,
2013-01-01 16:15:00,39.6,34.9,30.40,North,353,0.0,1.0,83,0.00,,,0.00,Wunderground v.1.15,2013-01-02 00:15:00,
2013-01-01 16:25:00,39.3,34.9,30.40,NW,322,0.0,2.0,84,0.00,,,0.00,Wunderground v.1.15,2013-01-02 00:25:00,
2013-01-01 16:35:00,39.1,35.0,30.40,North,353,0.0,5.0,85,0.00,,,0.00,Wunderground v.1.15,2013-01-02 00:35:00,
2013-01-01 16:45:00,38.8,34.7,30.40,NNW,342,0.0,5.0,85,0.00,,,0.00,Wunderground v.1.15,2013-01-02 00:45:00,
2013-01-01 16:50:00,38.8,34.7,30.40,NW,324,0.0,5.0,85,0.00,,,0.00,Wunderground v.1.15,2013-01-02 00:50:00,
2013-01-01 16:55:00,38.7,34.6,30.40,North,353,0.0,5.0,85,0.00,,,0.00,Wunderground v.1.15,2013-01-02 00:55:00,
2013-01-01 17:05:00,38.5,34.1,30.39,NNE,20,0.0,1.0,84,0.00,,,0.00,Wunderground v.1.15,2013-01-02 01:05:00,
2013-01-01 17:15:00,38.3,33.6,30.39,North,356,0.0,0.0,83,0.00,,,0.00,Wunderground v.1.15,2013-01-02 01:15:00,
2013-01-01 17:25:00,38.1,33.4,30.39,North,8,0.0,0.0,83,0.00,,,0.00,Wunderground v.1.15,2013-01-02 01:25:00,
2013-01-01 17:35:00,37.9,33.5,30.39,North,356,0.0,5.0,84,0.00,,,0.00,Wunderground v.1.15,2013-01-02 01:35:00,
2013-01-01 17:45:00,37.7,33.3,30.39,North,356,0.0,5.0,84,0.00,,,0.00,Wunderground v.1.15,2013-01-02 01:45:00,
2013-01-01 17:55:00,37.4,33.0,30.38,North,350,0.0,5.0,84,0.00,,,0.00,Wunderground v.1.15,2013-01-02 01:55:00,
2013-01-01 18:00:00,37.2,33.1,30.38,North,350,0.0,0.0,85,0.00,,,0.00,Wunderground v.1.15,2013-01-02 02:00:00,
2013-01-01 18:05:00,37.1,33.0,30.38,North,350,0.0,0.0,85,0.00,,,0.00,Wunderground v.1.15,2013-01-02 02:05:00,
2013-01-01 18:15:00,36.9,33.1,30.38,North,350,0.0,0.0,86,0.00,,,0.00,Wunderground v.1.15,2013-01-02 02:15:00,
2013-01-01 18:20:00,36.8,33.0,30.38,North,350,0.0,0.0,86,0.00,,,0.00,Wunderground v.1.15,2013-01-02 02:20:00,
2013-01-01 18:25:00,36.7,32.9,30.37,North,350,0.0,0.0,86,0.00,,,0.00,Wunderground v.1.15,2013-01-02 02:25:00,
2013-01-01 18:35:00,36.5,32.7,30.37,North,350,0.0,4.0,86,0.00,,,0.00,Wunderground v.1.15,2013-01-02 02:35:00,
2013-01-01 18:45:00,36.3,32.5,30.36,North,350,0.0,4.0,86,0.00,,,0.00,Wunderground v.1.15,2013-01-02 02:45:00,
2013-01-01 18:55:00,36.3,32.5,30.36,NNW,348,0.0,4.0,86,0.00,,,0.00,Wunderground v.1.15,2013-01-02 02:55:00,
2013-01-01 19:05:00,36.2,32.7,30.35,NNW,348,0.0,0.0,87,0.00,,,0.00,Wunderground v.1.15,2013-01-02 03:05:00,
2013-01-01 19:15:00,36.0,32.8,30.35,NNW,348,0.0,0.0,88,0.00,,,0.00,Wunderground v.1.15,2013-01-02 03:15:00,
2013-01-01 19:20:00,36.0,33.1,30.35,NNW,343,0.0,0.0,89,0.00,,,0.00,Wunderground v.1.15,2013-01-02 03:20:00,
2013-01-01 19:25:00,35.9,33.0,30.35,NNW,340,0.0,0.0,89,0.00,,,0.00,Wunderground v.1.15,2013-01-02 03:25:00,
2013-01-01 19:35:00,36.0,33.4,30.35,NW,311,0.0,0.0,90,0.00,,,0.00,Wunderground v.1.15,2013-01-02 03:35:00,
2013-01-01 19:45:00,36.0,33.6,30.35,NW,308,0.0,0.0,91,0.00,,,0.00,Wunderground v.1.15,2013-01-02 03:45:00,
2013-01-01 19:55:00,35.9,33.5,30.35,NNW,327,0.0,0.0,91,0.00,,,0.00,Wunderground v.1.15,2013-01-02 03:55:00,
2013-01-01 20:00:00,35.9,33.5,30.35,NW,324,0.0,0.0,91,0.00,,,0.00,Wunderground v.1.15,2013-01-02 04:00:00,
2013-01-01 20:10:00,35.7,33.3,30.35,NW,324,0.0,0.0,91,0.00,,,0.00,Wunderground v.1.15,2013-01-02 04:10:00,
2013-01-01 20:15:00,35.7,33.3,30.35,NW,324,0.0,0.0,91,0.00,,,0.00,Wunderground v.1.15,2013-01-02 04:15:00,
2013-01-01 20:25:00,35.4,33.0,30.35,NW,324,0.0,0.0,91,0.00,,,0.00,Wunderground v.1.15,2013-01-02 04:25:00,
2013-01-01 20:35:00,35.3,32.9,30.35,NNW,330,0.0,2.0,91,0.00,,,0.00,Wunderground v.1.15,2013-01-02 04:35:00,
2013-01-01 20:40:00,35.2,32.8,30.34,NNW,330,0.0,2.0,91,0.00,,,0.00,Wunderground v.1.15,2013-01-02 04:40:00,
2013-01-01 20:45:00,35.2,32.8,30.35,NW,306,0.0,2.0,91,0.00,,,0.00,Wunderground v.1.15,2013-01-02 04:45:00,
2013-01-01 20:55:00,35.1,32.7,30.35,NW,317,0.0,2.0,91,0.00,,,0.00,Wunderground v.1.15,2013-01-02 04:55:00,
2013-01-01 21:00:00,35.1,32.7,30.34,NW,313,0.0,0.0,91,0.00,,,0.00,Wunderground v.1.15,2013-01-02 05:00:00,
2013-01-01 21:05:00,35.1,32.5,30.34,NW,313,0.0,0.0,90,0.00,,,0.00,Wunderground v.1.15,2013-01-02 05:05:00,
2013-01-01 21:10:00,35.2,32.6,30.35,NW,323,0.0,0.0,90,0.00,,,0.00,Wunderground v.1.15,2013-01-02 05:10:00,
2013-01-01 21:15:00,35.2,32.3,30.34,NNW,337,0.0,0.0,89,0.00,,,0.00,Wunderground v.1.15,2013-01-02 05:15:00,
2013-01-01 21:20:00,35.3,32.4,30.34,WNW,299,0.0,1.0,89,0.00,,,0.00,Wunderground v.1.15,2013-01-02 05:20:00,
2013-01-01 21:25:00,35.2,32.3,30.35,NW,306,0.0,1.0,89,0.00,,,0.00,Wunderground v.1.15,2013-01-02 05:25:00,
2013-01-01 21:35:00,35.3,32.4,30.35,WNW,303,0.0,1.0,89,0.00,,,0.00,Wunderground v.1.15,2013-01-02 05:35:00,
2013-01-01 21:45:00,35.4,32.2,30.35,WNW,303,0.0,1.0,88,0.00,,,0.00,Wunderground v.1.15,2013-01-02 05:45:00,
2013-01-01 21:55:00,35.4,32.2,30.34,NW,308,0.0,1.0,88,0.00,,,0.00,Wunderground v.1.15,2013-01-02 05:55:00,
2013-01-01 22:05:00,35.5,32.3,30.34,WNW,303,0.0,2.0,88,0.00,,,0.00,Wunderground v.1.15,2013-01-02 06:05:00,
2013-01-01 22:15:00,35.4,32.2,30.34,WNW,303,0.0,0.0,88,0.00,,,0.00,Wunderground v.1.15,2013-01-02 06:15:00,
2013-01-01 22:25:00,35.3,32.1,30.34,NW,310,0.0,0.0,88,0.00,,,0.00,Wunderground v.1.15,2013-01-02 06:25:00,
2013-01-01 22:35:00,35.1,31.9,30.34,NW,310,0.0,2.0,88,0.00,,,0.00,Wunderground v.1.15,2013-01-02 06:35:00,
2013-01-01 22:40:00,35.0,31.8,30.34,NW,310,0.0,2.0,88,0.00,,,0.00,Wunderground v.1.15,2013-01-02 06:40:00,
2013-01-01 22:45:00,34.9,31.4,30.34,NW,310,0.0,2.0,87,0.00,,,0.00,Wunderground v.1.15,2013-01-02 06:45:00,
2013-01-01 22:55:00,34.9,31.4,30.33,NW,310,0.0,2.0,87,0.00,,,0.00,Wunderground v.1.15,2013-01-02 06:55:00,
2013-01-01 23:05:00,34.6,31.1,30.33,NW,310,0.0,0.0,87,0.00,,,0.00,Wunderground v.1.15,2013-01-02 07:05:00,
2013-01-01 23:15:00,34.1,30.9,30.33,NW,310,0.0,0.0,88,0.00,,,0.00,Wunderground v.1.15,2013-01-02 07:15:00,
2013-01-01 23:20:00,33.9,30.7,30.33,NW,310,0.0,0.0,88,0.00,,,0.00,Wunderground v.1.15,2013-01-02 07:20:00,
2013-01-01 23:25:00,33.9,30.7,30.33,NW,310,0.0,0.0,88,0.00,,,0.00,Wunderground v.1.15,2013-01-02 07:25:00,
2013-01-01 23:35:00,33.9,30.4,30.33,WNW,302,0.0,2.0,87,0.00,,,0.00,Wunderground v.1.15,2013-01-02 07:35:00,
2013-01-01 23:45:00,33.9,30.2,30.33,WNW,302,0.0,2.0,86,0.00,,,0.00,Wunderground v.1.15,2013-01-02 07:45:00,
2013-01-01 23:55:00,33.7,30.0,30.33,WNW,302,0.0,2.0,86,0.00,,,0.00,Wunderground v.1.15,2013-01-02 07:55:00,